Decoded Metar for NWWW (NOUMEA in NEW CALEDONIA) (IATA:NOU) | Meteo·Mobile Aviation Weather
aviador You're here:

NWWW Decoded Metar

NOUMEA in NEW CALEDONIA
Report Time2019-01-19 06:00:00
UTC Time2019-01-19 06:23:32
Flight Rules vfr VFR
Wind130° at 23 kt
W.Decomp.*RWY 11: 22.8 kt HW 3.2 kt RCW
W.Rank130° ranks 1
Current wind is above 130° avg. (9.2)
Visibility9999 m
Phenomena:N/A
Clouds:N/A
Expected CloudBase > 3,600 ft AGL from Temp-Dew spread
CeilingNone
Temp28°C (ISA +13)
Dew Point19°C (58% RH)
Heat Index29.2°C
AAT22.9°C
QNH1010 hPa
Density Alt1,952 ft
Elevation52 ft
Report Wrong Elevation
Raw Report
METAR NWWW 190600Z AUTO 13023KT CAVOK 28/19 Q1010 NOSIG=####018000099####
SAIN90 VIDP 190600

Extra information for NWWW:More info

Metar Taf Metar & Taf Last 4 Metars F.Rules Stats Wind Profile Meteogram Temp Stats Airport Information Weather charts Add Link Nearby VenuesMetar ALERT Operation Metar Decoded Social comments